createdAt,value
2023-05-11T00:02:27.310Z,0.20
2023-05-11T00:04:55.510Z,0.30
2023-05-11T00:07:23.596Z,0.28
2023-05-11T00:09:51.894Z,0.32
2023-05-11T00:12:20.257Z,0.20
2023-05-11T00:14:48.256Z,0.20
2023-05-11T00:17:18.880Z,0.10
2023-05-11T00:19:46.852Z,0.22
2023-05-11T00:22:16.177Z,0.20
2023-05-11T00:24:44.232Z,0.40
2023-05-11T00:27:12.205Z,0.10
2023-05-11T00:29:40.196Z,0.17
2023-05-11T00:32:08.225Z,0.20
2023-05-11T00:34:37.579Z,0.30
2023-05-11T00:37:08.706Z,0.30
2023-05-11T00:42:08.838Z,0.20
2023-05-11T00:44:36.814Z,0.10
2023-05-11T00:47:04.963Z,0.30
2023-05-11T00:49:33.070Z,0.20
2023-05-11T00:52:04.863Z,0.25
2023-05-11T00:54:33.176Z,0.20
2023-05-11T00:57:01.822Z,0.20
2023-05-11T00:59:30.026Z,0.20
2023-05-11T01:01:58.798Z,0.25
2023-05-11T01:04:27.148Z,0.30
2023-05-11T01:07:06.056Z,0.25
2023-05-11T01:09:45.986Z,0.40
2023-05-11T01:12:21.356Z,0.20
2023-05-11T01:15:01.663Z,0.38
2023-05-11T01:17:38.014Z,0.20
2023-05-11T01:20:13.841Z,0.20
2023-05-11T01:23:00.650Z,0.20
2023-05-11T01:25:43.696Z,0.20
2023-05-11T01:28:31.680Z,0.30
2023-05-11T01:31:08.194Z,0.22
2023-05-11T01:33:40.577Z,0.30
2023-05-11T01:36:12.641Z,0.20
2023-05-11T01:38:45.253Z,0.52
2023-05-11T01:41:17.421Z,0.20
2023-05-11T01:43:51.704Z,0.17
2023-05-11T01:46:27.456Z,0.20
2023-05-11T01:48:58.449Z,0.20
2023-05-11T01:51:28.650Z,0.22
2023-05-11T01:53:59.026Z,0.23
2023-05-11T01:56:28.882Z,0.20
2023-05-11T01:58:58.304Z,0.20
2023-05-11T02:01:30.123Z,0.13
2023-05-11T02:04:00.431Z,0.22
2023-05-11T02:06:30.296Z,0.15
2023-05-11T02:09:00.685Z,0.20
2023-05-11T02:11:30.377Z,0.20
2023-05-11T02:13:59.800Z,0.10
2023-05-11T02:16:32.867Z,0.25
2023-05-11T02:19:01.752Z,0.20
2023-05-11T02:21:31.642Z,0.13
2023-05-11T02:24:01.233Z,0.10
2023-05-11T02:26:29.403Z,0.30
2023-05-11T02:28:57.533Z,0.28
2023-05-11T02:31:30.217Z,0.20
2023-05-11T02:34:05.979Z,0.22
2023-05-11T02:36:38.828Z,0.17
2023-05-11T02:39:12.499Z,0.20
2023-05-11T02:41:45.693Z,0.17
2023-05-11T02:44:16.872Z,0.20
2023-05-11T02:49:18.772Z,0.30
2023-05-11T02:51:49.087Z,0.17
2023-05-11T02:54:18.547Z,0.10
2023-05-11T02:56:47.529Z,0.15
2023-05-11T02:59:16.544Z,0.10
2023-05-11T03:01:46.353Z,0.28
2023-05-11T03:04:14.892Z,0.30
2023-05-11T03:06:43.525Z,0.20
2023-05-11T03:09:11.962Z,0.20
2023-05-11T03:11:40.290Z,0.30
2023-05-11T03:14:08.708Z,0.20
2023-05-11T03:16:39.139Z,0.20
2023-05-11T03:19:09.762Z,0.30
2023-05-11T03:21:40.041Z,0.28
2023-05-11T03:24:09.416Z,0.30
2023-05-11T03:26:38.130Z,0.30
2023-05-11T03:29:11.197Z,0.20
2023-05-11T03:31:39.751Z,0.20
2023-05-11T03:34:09.117Z,0.40
2023-05-11T03:36:37.717Z,0.57
2023-05-11T03:39:10.040Z,0.20
2023-05-11T03:41:41.078Z,0.30
2023-05-11T03:44:11.629Z,0.20
2023-05-11T03:46:42.060Z,0.13
2023-05-11T03:49:13.723Z,0.25
2023-05-11T03:51:43.013Z,0.30
2023-05-11T03:54:11.800Z,0.30
2023-05-11T03:56:41.965Z,0.32
2023-05-11T03:59:10.619Z,0.35
2023-05-11T04:01:38.817Z,0.25
2023-05-11T04:04:07.152Z,0.57
2023-05-11T04:06:36.710Z,0.28
2023-05-11T04:09:04.988Z,0.30
2023-05-11T04:11:36.673Z,0.45
2023-05-11T04:14:05.023Z,0.22
2023-05-11T04:16:33.125Z,0.30
2023-05-11T04:19:02.020Z,0.40
2023-05-11T04:21:30.747Z,0.10
2023-05-11T04:24:00.308Z,0.40
2023-05-11T04:26:28.378Z,0.28
2023-05-11T04:28:56.443Z,0.30
2023-05-11T04:31:24.493Z,0.30
2023-05-11T04:33:52.707Z,0.50
2023-05-11T04:36:22.287Z,0.13
2023-05-11T04:38:50.544Z,0.25
2023-05-11T04:41:22.403Z,0.43
2023-05-11T04:43:50.426Z,0.50
2023-05-11T04:46:18.508Z,0.30
2023-05-11T04:48:49.609Z,0.28
2023-05-11T04:51:17.650Z,0.60
2023-05-11T04:53:45.720Z,0.32
2023-05-11T04:56:13.706Z,0.47
2023-05-11T04:58:43.102Z,0.30
2023-05-11T05:01:11.348Z,0.20
2023-05-11T05:03:39.411Z,0.30
2023-05-11T05:06:10.737Z,0.30
2023-05-11T05:08:39.596Z,0.40
2023-05-11T05:11:08.470Z,0.38
2023-05-11T05:13:36.713Z,0.20
2023-05-11T05:16:08.752Z,0.57
2023-05-11T05:18:36.953Z,0.40
2023-05-11T05:21:06.514Z,0.20
2023-05-11T05:23:34.765Z,0.40
2023-05-11T05:26:02.803Z,0.32
2023-05-11T05:28:30.793Z,0.20
2023-05-11T05:30:59.681Z,0.30
2023-05-11T05:33:29.375Z,0.45
2023-05-11T05:35:57.547Z,0.22
2023-05-11T05:38:25.603Z,0.20
2023-05-11T05:40:53.890Z,0.28
2023-05-11T05:43:22.326Z,0.40
2023-05-11T05:45:50.514Z,0.38
2023-05-11T05:48:18.696Z,0.20
2023-05-11T05:50:48.265Z,0.20
2023-05-11T05:53:16.574Z,0.40
2023-05-11T05:55:44.564Z,0.30
2023-05-11T05:58:12.445Z,0.30
2023-05-11T06:00:40.381Z,0.25
2023-05-11T06:03:08.469Z,0.22
2023-05-11T06:05:36.683Z,0.63
2023-05-11T06:08:10.916Z,0.70
2023-05-11T06:10:42.085Z,0.50
2023-05-11T06:13:10.326Z,0.40
2023-05-11T06:15:39.995Z,0.40
2023-05-11T06:18:10.053Z,0.43
2023-05-11T06:20:38.020Z,0.68
2023-05-11T06:23:10.341Z,0.60
2023-05-11T06:25:39.169Z,0.43
2023-05-11T06:28:13.141Z,0.70
2023-05-11T06:30:41.444Z,0.70
2023-05-11T06:33:09.575Z,0.60
2023-05-11T06:35:38.150Z,0.57
2023-05-11T06:38:10.236Z,0.52
2023-05-11T06:40:38.444Z,0.60
2023-05-11T06:43:06.596Z,0.65
2023-05-11T06:45:35.011Z,0.90
2023-05-11T06:48:05.598Z,0.70
2023-05-11T06:50:33.568Z,0.45
2023-05-11T06:53:08.239Z,0.47
2023-05-11T06:55:37.943Z,0.68
2023-05-11T06:58:09.120Z,0.65
2023-05-11T07:03:06.004Z,0.80
2023-05-11T07:05:36.881Z,0.57
2023-05-11T07:08:05.639Z,0.70
2023-05-11T07:10:33.714Z,0.93
2023-05-11T07:13:05.463Z,0.80
2023-05-11T07:15:33.427Z,0.90
2023-05-11T07:18:02.345Z,0.85
2023-05-11T07:20:30.536Z,0.80
2023-05-11T07:22:59.662Z,1.00
2023-05-11T07:25:28.542Z,1.25
2023-05-11T07:27:56.843Z,1.15
2023-05-11T07:30:26.300Z,0.95
2023-05-11T07:32:54.490Z,1.17
2023-05-11T07:35:24.013Z,1.30
2023-05-11T07:37:52.315Z,1.23
2023-05-11T07:40:20.702Z,1.10
2023-05-11T07:42:48.776Z,1.27
2023-05-11T07:45:16.804Z,1.10
2023-05-11T07:47:46.115Z,1.35
2023-05-11T07:50:17.227Z,0.95
2023-05-11T07:55:13.094Z,0.80
2023-05-11T07:57:41.141Z,1.08
2023-05-11T08:00:12.240Z,1.10
2023-05-11T08:02:40.204Z,1.42
2023-05-11T08:05:10.461Z,1.50
2023-05-11T08:07:41.132Z,0.93
2023-05-11T08:12:38.159Z,1.05
2023-05-11T08:15:09.995Z,1.27
2023-05-11T08:17:38.021Z,1.08
2023-05-11T08:20:11.437Z,1.52
2023-05-11T08:22:39.740Z,1.10
2023-05-11T08:25:08.972Z,1.13
2023-05-11T08:27:36.959Z,0.98
2023-05-11T08:30:11.715Z,1.27
2023-05-11T08:35:13.295Z,0.82
2023-05-11T08:37:41.274Z,1.05
2023-05-11T08:40:14.606Z,1.20
2023-05-11T08:42:47.852Z,0.73
2023-05-11T08:45:16.722Z,1.00
2023-05-11T08:47:46.353Z,0.93
2023-05-11T08:50:15.794Z,1.05
2023-05-11T08:52:44.413Z,1.13
2023-05-11T08:55:13.298Z,1.27
2023-05-11T08:57:45.164Z,1.27
2023-05-11T09:00:14.454Z,1.08
2023-05-11T09:02:43.595Z,1.27
2023-05-11T09:05:12.460Z,1.23
2023-05-11T09:07:42.699Z,1.10
2023-05-11T09:10:13.553Z,1.27
2023-05-11T09:15:11.095Z,0.90
2023-05-11T09:17:39.421Z,0.80
2023-05-11T09:20:09.438Z,1.17
2023-05-11T09:22:44.683Z,1.10
2023-05-11T09:25:14.089Z,1.20
2023-05-11T09:27:43.191Z,1.10
2023-05-11T09:30:22.173Z,0.93
2023-05-11T09:32:53.521Z,1.02
2023-05-11T09:38:05.130Z,0.98
2023-05-11T09:40:35.048Z,0.93
2023-05-11T09:43:03.855Z,1.23
2023-05-11T09:45:42.634Z,1.10
2023-05-11T09:48:24.957Z,0.60
2023-05-11T09:51:00.401Z,0.98
2023-05-11T09:53:43.360Z,1.00
2023-05-11T09:56:12.067Z,1.10
2023-05-11T09:58:51.327Z,0.90
2023-05-11T10:01:20.757Z,1.17
2023-05-11T10:04:02.644Z,1.30
2023-05-11T10:06:48.509Z,1.10
2023-05-11T10:09:20.581Z,1.15
2023-05-11T10:11:48.677Z,1.02
2023-05-11T10:14:17.546Z,0.70
2023-05-11T10:16:46.465Z,1.02
2023-05-11T10:19:14.865Z,1.10
2023-05-11T10:21:43.704Z,1.10
2023-05-11T10:24:13.839Z,0.90
2023-05-11T10:26:43.610Z,1.13
2023-05-11T10:29:11.651Z,1.00
2023-05-11T10:31:40.165Z,1.00
2023-05-11T10:34:08.441Z,1.00
2023-05-11T10:36:36.505Z,1.10
2023-05-11T10:39:04.879Z,1.00
2023-05-11T10:41:48.395Z,1.08
2023-05-11T10:44:35.180Z,0.88
2023-05-11T10:47:21.989Z,0.73
2023-05-11T10:50:25.854Z,0.93
2023-05-11T10:53:10.567Z,0.90
2023-05-11T10:56:01.650Z,0.93
2023-05-11T10:58:45.658Z,0.55
2023-05-11T11:01:37.761Z,0.68
2023-05-11T11:04:09.956Z,0.80
2023-05-11T11:06:39.695Z,0.85
2023-05-11T11:09:11.287Z,0.77
2023-05-11T11:11:41.114Z,1.02
2023-05-11T11:14:11.419Z,0.80
2023-05-11T11:16:40.346Z,0.85
2023-05-11T11:19:42.073Z,1.20
2023-05-11T11:22:47.405Z,0.95
2023-05-11T11:25:17.613Z,1.00
2023-05-11T11:27:59.483Z,0.80
2023-05-11T11:30:30.613Z,0.90
2023-05-11T11:33:32.526Z,0.85
2023-05-11T11:36:00.472Z,0.82
2023-05-11T11:38:30.618Z,0.95
2023-05-11T11:40:58.677Z,0.87
2023-05-11T11:43:29.470Z,1.05
2023-05-11T11:45:58.355Z,1.10
2023-05-11T11:48:37.274Z,0.88
2023-05-11T11:51:07.381Z,1.10
2023-05-11T11:54:09.841Z,0.93
2023-05-11T11:56:41.472Z,1.13
2023-05-11T11:59:13.783Z,1.10
2023-05-11T12:01:43.993Z,1.05
2023-05-11T12:04:47.503Z,0.87
2023-05-11T12:07:17.067Z,0.90
2023-05-11T12:09:47.142Z,1.02
2023-05-11T12:12:19.010Z,1.00
2023-05-11T12:14:49.913Z,0.90
2023-05-11T12:17:25.475Z,0.90
2023-05-11T12:19:53.677Z,0.60
2023-05-11T12:22:25.411Z,0.93
2023-05-11T12:24:59.495Z,0.75
2023-05-11T12:27:28.295Z,0.70
2023-05-11T12:29:57.341Z,0.90
2023-05-11T12:32:29.380Z,0.77
2023-05-11T12:35:02.291Z,1.02
2023-05-11T12:37:31.091Z,0.88
2023-05-11T12:40:01.662Z,0.80
2023-05-11T12:42:29.798Z,0.82
2023-05-11T12:44:58.019Z,1.00
2023-05-11T12:47:26.229Z,0.82
2023-05-11T12:49:54.491Z,0.77
2023-05-11T12:52:25.913Z,0.60
2023-05-11T12:55:00.142Z,0.75
2023-05-11T12:57:31.593Z,0.88
2023-05-11T13:00:11.589Z,0.90
2023-05-11T13:02:50.005Z,1.00
2023-05-11T13:05:20.662Z,0.90
2023-05-11T13:07:49.596Z,0.90
2023-05-11T13:10:17.510Z,1.00
2023-05-11T13:12:53.413Z,0.82
2023-05-11T13:15:25.122Z,0.95
2023-05-11T13:17:58.589Z,0.98
2023-05-11T13:20:28.631Z,0.90
2023-05-11T13:23:07.602Z,1.17
2023-05-11T13:25:53.397Z,1.00
2023-05-11T13:28:25.202Z,0.70
2023-05-11T13:31:00.034Z,0.60
2023-05-11T13:33:28.161Z,0.90
2023-05-11T13:35:57.123Z,0.88
2023-05-11T13:38:25.063Z,0.73
2023-05-11T13:40:53.313Z,0.70
2023-05-11T13:43:22.729Z,0.77
2023-05-11T13:45:50.993Z,0.77
2023-05-11T13:48:19.026Z,0.82
2023-05-11T13:50:47.276Z,0.70
2023-05-11T13:53:15.305Z,0.63
2023-05-11T13:55:43.469Z,0.60
2023-05-11T13:58:11.710Z,0.47
2023-05-11T14:00:41.213Z,0.65
2023-05-11T14:03:09.285Z,1.00
2023-05-11T14:05:39.202Z,1.00
2023-05-11T14:08:07.473Z,0.70
2023-05-11T14:10:35.389Z,0.73
2023-05-11T14:13:05.782Z,0.80
2023-05-11T14:15:34.496Z,0.68
2023-05-11T14:18:08.097Z,0.70
2023-05-11T14:20:38.704Z,0.52
2023-05-11T14:23:06.920Z,0.80
2023-05-11T14:25:36.075Z,0.70
2023-05-11T14:28:05.142Z,0.75
2023-05-11T14:30:33.340Z,0.98
2023-05-11T14:33:03.746Z,0.80
2023-05-11T14:35:31.788Z,0.80
2023-05-11T14:37:59.753Z,0.80
2023-05-11T14:40:27.718Z,0.90
2023-05-11T14:42:56.276Z,0.60
2023-05-11T14:45:24.862Z,0.68
2023-05-11T14:47:52.975Z,0.68
2023-05-11T14:50:22.440Z,0.77
2023-05-11T14:52:50.443Z,0.65
2023-05-11T14:55:18.873Z,0.70
2023-05-11T14:57:46.920Z,0.70
2023-05-11T15:00:15.943Z,0.70
2023-05-11T15:02:43.996Z,0.57
2023-05-11T15:05:12.091Z,0.75
2023-05-11T15:07:41.538Z,0.73
2023-05-11T15:10:09.720Z,0.60
2023-05-11T15:12:38.032Z,0.57
2023-05-11T15:15:10.362Z,0.60
2023-05-11T15:17:38.383Z,0.73
2023-05-11T15:20:07.820Z,0.57
2023-05-11T15:22:35.873Z,0.60
2023-05-11T15:25:08.592Z,0.43
2023-05-11T15:27:37.282Z,0.73
2023-05-11T15:30:08.673Z,0.30
2023-05-11T15:32:36.721Z,0.55
2023-05-11T15:35:07.415Z,0.40
2023-05-11T15:37:35.414Z,0.52
2023-05-11T15:40:06.468Z,0.52
2023-05-11T15:45:02.960Z,0.40
2023-05-11T15:47:30.937Z,0.65
2023-05-11T15:49:59.018Z,0.57
2023-05-11T15:52:27.075Z,0.50
2023-05-11T15:54:55.139Z,0.60
2023-05-11T15:57:25.944Z,0.80
2023-05-11T15:59:55.111Z,0.70
2023-05-11T16:02:23.334Z,0.57
2023-05-11T16:04:51.565Z,0.45
2023-05-11T16:07:19.573Z,0.70
2023-05-11T16:09:47.894Z,0.70
2023-05-11T16:12:17.277Z,0.30
2023-05-11T16:14:46.600Z,0.32
2023-05-11T16:17:14.786Z,0.60
2023-05-11T16:19:42.828Z,0.68
2023-05-11T16:22:11.064Z,0.63
2023-05-11T16:24:39.017Z,0.70
2023-05-11T16:27:07.274Z,0.50
2023-05-11T16:29:35.420Z,0.60
2023-05-11T16:32:05.144Z,0.50
2023-05-11T16:34:35.089Z,0.50
2023-05-11T16:37:04.121Z,0.50
2023-05-11T16:39:32.187Z,0.52
2023-05-11T16:42:00.118Z,0.50
2023-05-11T16:44:28.101Z,0.45
2023-05-11T16:46:56.594Z,0.60
2023-05-11T16:49:26.058Z,0.60
2023-05-11T16:51:54.172Z,0.70
2023-05-11T16:54:22.266Z,0.60
2023-05-11T16:56:50.434Z,0.82
2023-05-11T16:59:18.357Z,0.50
2023-05-11T17:01:46.688Z,0.75
2023-05-11T17:04:15.035Z,0.68
2023-05-11T17:06:44.711Z,1.13
2023-05-11T17:09:12.818Z,0.65
2023-05-11T17:11:40.778Z,0.70
2023-05-11T17:14:08.737Z,0.80
2023-05-11T17:16:37.233Z,0.82
2023-05-11T17:19:06.525Z,0.85
2023-05-11T17:21:34.618Z,0.63
2023-05-11T17:24:06.111Z,1.00
2023-05-11T17:26:46.501Z,0.70
2023-05-11T17:29:15.957Z,0.55
2023-05-11T17:31:46.314Z,0.88
2023-05-11T17:34:14.886Z,0.68
2023-05-11T17:36:43.032Z,0.80
2023-05-11T17:39:13.194Z,0.60
2023-05-11T17:41:41.313Z,0.80
2023-05-11T17:44:09.302Z,0.85
2023-05-11T17:46:37.401Z,0.80
2023-05-11T17:49:08.199Z,0.75
2023-05-11T17:51:36.427Z,0.70
2023-05-11T17:54:06.974Z,0.80
2023-05-11T17:56:36.425Z,0.80
2023-05-11T17:59:06.669Z,0.93
2023-05-11T18:01:34.788Z,1.00
2023-05-11T18:04:05.177Z,1.13
2023-05-11T18:06:34.643Z,1.00
2023-05-11T18:09:05.029Z,1.02
2023-05-11T18:11:33.154Z,1.00
2023-05-11T18:14:02.809Z,1.23
2023-05-11T18:16:31.374Z,1.05
2023-05-11T18:19:00.077Z,0.95
2023-05-11T18:21:28.555Z,0.85
2023-05-11T18:23:56.851Z,0.60
2023-05-11T18:26:26.467Z,1.40
2023-05-11T18:28:55.255Z,0.98
2023-05-11T18:31:24.850Z,0.88
2023-05-11T18:33:52.925Z,0.90
2023-05-11T18:36:20.908Z,0.70
2023-05-11T18:38:49.938Z,1.08
2023-05-11T18:41:17.983Z,1.00
2023-05-11T18:43:48.386Z,0.98
2023-05-11T18:46:16.512Z,1.10
2023-05-11T18:48:46.152Z,1.00
2023-05-11T18:51:18.871Z,0.95
2023-05-11T18:53:46.899Z,0.80
2023-05-11T18:56:14.851Z,0.82
2023-05-11T18:58:42.897Z,0.77
2023-05-11T19:01:10.945Z,1.17
2023-05-11T19:03:39.177Z,0.77
2023-05-11T19:06:09.084Z,0.73
2023-05-11T19:08:37.106Z,0.90
2023-05-11T19:11:07.420Z,1.33
2023-05-11T19:13:35.616Z,0.80
2023-05-11T19:16:05.122Z,0.90
2023-05-11T19:18:35.512Z,0.80
2023-05-11T19:21:05.073Z,0.73
2023-05-11T19:23:34.916Z,0.95
2023-05-11T19:26:02.964Z,0.68
2023-05-11T19:28:31.004Z,0.70
2023-05-11T19:31:02.621Z,1.00
2023-05-11T19:33:34.320Z,0.70
2023-05-11T19:36:02.573Z,0.80
2023-05-11T19:38:30.571Z,1.00
2023-05-11T19:41:00.710Z,0.90
2023-05-11T19:43:28.699Z,1.10
2023-05-11T19:45:56.948Z,1.00
2023-05-11T19:48:24.955Z,1.00
2023-05-11T19:50:52.851Z,0.88
2023-05-11T19:53:20.860Z,0.90
2023-05-11T19:55:49.162Z,1.23
2023-05-11T19:58:18.491Z,1.30
2023-05-11T20:00:46.832Z,1.17
2023-05-11T20:03:15.807Z,1.48
2023-05-11T20:05:43.991Z,1.25
2023-05-11T20:08:12.070Z,0.93
2023-05-11T20:10:40.072Z,1.23
2023-05-11T20:13:08.169Z,1.30
2023-05-11T20:15:39.026Z,1.25
2023-05-11T20:18:08.117Z,1.23
2023-05-11T20:20:36.420Z,0.85
2023-05-11T20:23:06.389Z,0.95
2023-05-11T20:25:34.324Z,1.42
2023-05-11T20:28:03.821Z,1.10
2023-05-11T20:30:31.798Z,1.05
2023-05-11T20:35:34.090Z,1.20
2023-05-11T20:38:02.382Z,1.13
2023-05-11T20:40:30.329Z,0.98
2023-05-11T20:42:58.441Z,0.73
2023-05-11T20:45:26.429Z,0.60
2023-05-11T20:47:54.412Z,0.80
2023-05-11T20:50:24.606Z,0.80
2023-05-11T20:52:52.562Z,1.00
2023-05-11T20:55:20.922Z,1.17
2023-05-11T20:57:49.025Z,0.70
2023-05-11T21:00:17.848Z,0.85
2023-05-11T21:02:46.998Z,0.77
2023-05-11T21:05:15.044Z,0.70
2023-05-11T21:07:44.388Z,0.70
2023-05-11T21:10:13.308Z,0.90
2023-05-11T21:12:41.333Z,0.65
2023-05-11T21:15:10.249Z,0.60
2023-05-11T21:17:38.367Z,0.57
2023-05-11T21:20:07.388Z,0.55
2023-05-11T21:22:36.337Z,0.80
2023-05-11T21:25:07.930Z,0.75
2023-05-11T21:27:36.755Z,0.70
2023-05-11T21:30:06.292Z,0.80
2023-05-11T21:32:34.220Z,0.80
2023-05-11T21:35:02.756Z,1.20
2023-05-11T21:37:33.943Z,0.50
2023-05-11T21:42:34.416Z,0.50
2023-05-11T21:45:07.390Z,0.93
2023-05-11T21:47:35.447Z,0.80
2023-05-11T21:50:03.769Z,0.60
2023-05-11T21:52:31.761Z,0.80
2023-05-11T21:55:00.068Z,0.70
2023-05-11T21:57:28.172Z,0.75
2023-05-11T21:59:57.847Z,0.55
2023-05-11T22:02:25.910Z,0.55
2023-05-11T22:04:53.854Z,0.70
2023-05-11T22:07:21.810Z,0.55
2023-05-11T22:09:49.717Z,0.73
2023-05-11T22:12:17.704Z,0.60
2023-05-11T22:14:45.846Z,0.50
2023-05-11T22:17:15.245Z,0.60
2023-05-11T22:19:43.147Z,1.00
2023-05-11T22:22:11.173Z,0.60
2023-05-11T22:24:39.095Z,0.50
2023-05-11T22:27:08.544Z,0.75
2023-05-11T22:29:36.483Z,0.93
2023-05-11T22:32:07.103Z,0.60
2023-05-11T22:34:36.755Z,0.95
2023-05-11T22:37:05.237Z,0.82
2023-05-11T22:39:33.411Z,0.70
2023-05-11T22:42:01.636Z,0.60
2023-05-11T22:44:29.575Z,0.70
2023-05-11T22:46:59.271Z,0.90
2023-05-11T22:49:28.507Z,0.90
2023-05-11T22:51:59.627Z,0.68
2023-05-11T22:54:27.573Z,0.57
2023-05-11T22:56:55.531Z,0.90
2023-05-11T22:59:23.454Z,0.77
2023-05-11T23:01:51.544Z,1.10
2023-05-11T23:04:19.572Z,0.65
2023-05-11T23:06:48.252Z,0.88
2023-05-11T23:09:17.846Z,0.73
2023-05-11T23:11:45.859Z,0.70
2023-05-11T23:14:13.958Z,0.95
2023-05-11T23:16:42.287Z,0.60
2023-05-11T23:19:10.238Z,0.85
2023-05-11T23:21:38.495Z,1.00
2023-05-11T23:24:07.137Z,0.80
2023-05-11T23:26:37.858Z,0.88
2023-05-11T23:29:08.599Z,0.70
2023-05-11T23:31:36.750Z,0.90
2023-05-11T23:34:04.989Z,0.93
2023-05-11T23:36:33.635Z,0.88
2023-05-11T23:39:01.819Z,0.57
2023-05-11T23:41:30.698Z,0.95
2023-05-11T23:44:00.551Z,0.93
2023-05-11T23:46:29.092Z,0.90
2023-05-11T23:48:57.414Z,0.80
2023-05-11T23:51:25.392Z,0.90
2023-05-11T23:53:53.423Z,0.73
2023-05-11T23:56:21.594Z,0.98
2023-05-11T23:58:50.441Z,0.90
